Terminal Aerodrome Forecast
Issued by NWS

Home | Current Version | Previous Version | Text Only | Print | Product List | Glossary On
Versions: 1 2 3 4 5 6 7 8 9 10 11 12 13 14 15
000
FTPA31 PHFO 251128
TAFHOG
TAF
PHOG 251128Z 2512/2612 06005KT P6SM FEW060
     FM252000 05018G25KT P6SM FEW060
     FM260400 05012G20KT P6SM FEW060
     FM260800 05010KT P6SM FEW030 SCT060
      AMD LTD TO VIS AND WIND TIL 251600=

USA.gov is the U.S. government's official web portal to all federal, state and local government web resources and services.